Main page
Satellite images 10-day forecastsClimateMarine weather Cyclones Lightning AirportsFAQ Newsletter About
Weather : Europe Africa North America South America Asia Australia-Oceania Others
Languages Contact

Munich, Germany

Munich Airport

latitude: 48-21N, longitude: 011-47E, elevation: 453 m


METAR: EDDM 042220Z 02001KT CAVOK 20/18 Q1021 NOSIG
TAF: EDDM 041700Z 0418/0524 VRB02KT CAVOK BECMG 0505/0507 10007KT BECMG 0518/0520 25005KT

Time: 00:27 (22:27 UTC)

Current weather observation

The report was made 7 minutes ago, at 22:20 UTC
Wind 1 kt from the North/Northeast
Temperature 20°C
Humidity 88%
Pressure 1021 hPa
Visibility 10 km or more
no clouds below 1500 m and no cumulonimbus

Change units

Forecast

The report was made 5 hours and 27 minutes ago, at 17:00 UTC
Forecast valid from 04 at 18 UTC to 05 at 24 UTC
Wind 2 kt from variable directions
Visibility 10 km or more
no clouds below 1500 m and no cumulonimbus
Becoming
from 05 at 05 UTC to 05 at 07 UTC
Wind 7 kt from the East
Becoming
from 05 at 18 UTC to 05 at 20 UTC
Wind 5 kt from the West/Southwest
The information on this site is subject to a disclaimer
Weather : Europe Africa North America South America Asia Australia-Oceania Others
Satellite images 10-day forecastsClimateMarine weather Cyclones Lightning AirportsFAQ Languages Contact Newsletter About